createdAt,value
2016-09-24T00:00:06.596Z,99.99
2016-09-24T00:01:07.154Z,99.99
2016-09-24T00:02:06.754Z,99.99
2016-09-24T00:03:06.512Z,99.99
2016-09-24T00:04:06.473Z,99.99
2016-09-24T00:05:06.238Z,99.99
2016-09-24T00:06:06.980Z,99.99
2016-09-24T00:07:07.419Z,99.99
2016-09-24T00:08:06.621Z,99.99
2016-09-24T00:09:06.526Z,99.99
2016-09-24T00:10:06.549Z,99.99
2016-09-24T00:11:07.230Z,99.99
2016-09-24T00:12:07.187Z,99.99
2016-09-24T00:13:06.774Z,99.99
2016-09-24T00:14:07.210Z,99.99
2016-09-24T00:15:06.872Z,99.99
2016-09-24T00:16:07.102Z,99.99
2016-09-24T00:17:07.174Z,99.99
2016-09-24T00:18:07.236Z,99.99
2016-09-24T00:19:06.989Z,99.99
2016-09-24T00:20:06.647Z,99.99
2016-09-24T00:21:06.609Z,99.99
2016-09-24T00:22:06.659Z,99.99
2016-09-24T00:23:06.928Z,99.99
2016-09-24T00:24:07.424Z,99.99
2016-09-24T00:25:07.831Z,99.99
2016-09-24T00:26:07.811Z,99.99
2016-09-24T00:27:06.803Z,99.99
2016-09-24T00:28:06.681Z,99.99
2016-09-24T00:29:07.080Z,99.99
2016-09-24T00:30:06.503Z,99.99
2016-09-24T00:31:06.948Z,99.99
2016-09-24T00:32:06.536Z,99.99
2016-09-24T00:33:08.374Z,99.99
2016-09-24T00:34:06.986Z,99.99
2016-09-24T00:35:07.614Z,99.99
2016-09-24T00:36:07.167Z,99.99
2016-09-24T00:37:07.091Z,99.99
2016-09-24T00:38:08.082Z,99.99
2016-09-24T00:39:06.880Z,99.99
2016-09-24T00:40:07.085Z,99.99
2016-09-24T00:41:06.912Z,99.99
2016-09-24T00:42:07.876Z,99.99
2016-09-24T00:43:06.670Z,99.99
2016-09-24T00:44:06.721Z,99.99
2016-09-24T00:45:07.513Z,99.99
2016-09-24T00:46:07.204Z,99.99
2016-09-24T00:47:07.300Z,99.99
2016-09-24T00:48:07.007Z,99.99
2016-09-24T00:49:07.560Z,99.99
2016-09-24T00:50:07.441Z,99.99
2016-09-24T00:51:06.802Z,99.99
2016-09-24T00:52:07.540Z,99.99
2016-09-24T00:53:07.373Z,99.99
2016-09-24T00:54:07.320Z,99.99
2016-09-24T00:55:06.973Z,99.99
2016-09-24T00:56:07.388Z,99.99
2016-09-24T00:57:07.548Z,99.99
2016-09-24T00:58:07.152Z,99.99
2016-09-24T00:59:06.893Z,99.99
2016-09-24T01:00:07.472Z,99.99
2016-09-24T01:01:07.807Z,99.99
2016-09-24T01:02:07.389Z,99.99
2016-09-24T01:03:07.478Z,99.99
2016-09-24T01:04:07.711Z,99.99
2016-09-24T01:05:07.263Z,99.99
2016-09-24T01:06:07.105Z,99.99
2016-09-24T01:07:07.185Z,99.99
2016-09-24T01:08:07.801Z,99.99
2016-09-24T01:09:07.462Z,99.99
2016-09-24T01:10:07.526Z,99.99
2016-09-24T01:11:07.247Z,99.99
2016-09-24T01:12:07.706Z,99.99
2016-09-24T01:13:07.635Z,99.99
2016-09-24T01:14:07.859Z,99.99
2016-09-24T01:15:07.725Z,99.99
2016-09-24T01:16:07.584Z,99.99
2016-09-24T01:17:07.971Z,99.99
2016-09-24T01:18:08.041Z,99.99
2016-09-24T01:19:09.342Z,99.99
2016-09-24T01:20:08.083Z,99.99
2016-09-24T01:21:07.670Z,99.99
2016-09-24T01:22:07.548Z,99.99
2016-09-24T01:23:08.076Z,99.99
2016-09-24T01:24:07.654Z,99.99
2016-09-24T01:25:08.095Z,99.99
2016-09-24T01:26:07.994Z,99.99
2016-09-24T01:27:08.055Z,99.99
2016-09-24T01:28:08.016Z,99.99
2016-09-24T01:29:08.406Z,99.99
2016-09-24T01:30:08.351Z,99.99
2016-09-24T01:31:08.033Z,99.99
2016-09-24T01:32:07.899Z,99.99
2016-09-24T01:33:08.173Z,99.99
2016-09-24T01:34:08.127Z,99.99
2016-09-24T01:35:08.919Z,99.99
2016-09-24T01:36:07.982Z,99.99
2016-09-24T01:37:09.499Z,99.99
2016-09-24T01:38:08.119Z,99.99
2016-09-24T01:39:09.031Z,99.99
2016-09-24T01:40:08.596Z,99.99
2016-09-24T01:41:08.018Z,99.99
2016-09-24T01:42:08.337Z,99.99
2016-09-24T01:43:09.200Z,99.99
2016-09-24T01:44:08.434Z,99.99
2016-09-24T01:45:09.167Z,99.99
2016-09-24T01:46:08.472Z,99.99
2016-09-24T01:47:08.334Z,99.99
2016-09-24T01:48:08.201Z,99.99
2016-09-24T01:49:08.551Z,99.99
2016-09-24T01:50:08.010Z,99.99
2016-09-24T01:51:08.446Z,99.99
2016-09-24T01:52:08.565Z,99.99
2016-09-24T01:53:07.882Z,99.99
2016-09-24T01:54:08.142Z,99.99
2016-09-24T01:55:08.905Z,99.99
2016-09-24T01:56:08.391Z,99.99
2016-09-24T01:57:08.877Z,99.99
2016-09-24T01:58:08.556Z,99.99
2016-09-24T01:59:08.670Z,99.99
2016-09-24T02:00:09.205Z,99.99
2016-09-24T02:01:08.466Z,99.99
2016-09-24T02:02:08.039Z,99.99
2016-09-24T02:03:09.404Z,99.99
2016-09-24T02:04:08.302Z,99.99
2016-09-24T02:05:08.523Z,99.99
2016-09-24T02:06:10.379Z,99.99
2016-09-24T02:07:08.878Z,99.99
2016-09-24T02:08:08.266Z,99.99
2016-09-24T02:09:09.016Z,99.99
2016-09-24T02:10:08.915Z,99.99
2016-09-24T02:11:08.415Z,99.99
2016-09-24T02:12:09.163Z,99.99
2016-09-24T02:13:09.149Z,99.99
2016-09-24T02:14:09.425Z,99.99
2016-09-24T02:15:09.177Z,99.99
2016-09-24T02:16:08.926Z,99.99
2016-09-24T02:17:09.449Z,99.99
2016-09-24T02:18:08.648Z,99.99
2016-09-24T02:19:09.072Z,99.99
2016-09-24T02:20:08.514Z,99.99
2016-09-24T02:21:09.520Z,99.99
2016-09-24T02:22:09.410Z,99.99
2016-09-24T02:23:09.697Z,99.99
2016-09-24T02:24:09.286Z,99.99
2016-09-24T02:25:09.647Z,99.99
2016-09-24T02:26:10.652Z,99.99
2016-09-24T02:27:09.080Z,99.99
2016-09-24T02:28:09.160Z,99.99
2016-09-24T02:29:09.464Z,99.99
2016-09-24T02:30:09.698Z,99.99
2016-09-24T02:31:09.569Z,99.99
2016-09-24T02:32:09.196Z,99.99
2016-09-24T02:33:09.578Z,99.99
2016-09-24T02:34:09.722Z,99.99
2016-09-24T02:35:09.693Z,99.99
2016-09-24T02:36:09.270Z,99.99
2016-09-24T02:37:09.684Z,99.99
2016-09-24T02:38:09.151Z,99.99
2016-09-24T02:39:10.303Z,99.99
2016-09-24T02:40:09.551Z,99.99
2016-09-24T02:41:09.901Z,99.99
2016-09-24T02:42:09.313Z,99.99
2016-09-24T02:43:09.494Z,99.99
2016-09-24T02:44:09.622Z,99.99
2016-09-24T02:45:09.435Z,99.99
2016-09-24T02:46:09.586Z,99.99
2016-09-24T02:47:09.253Z,99.99
2016-09-24T02:48:09.487Z,99.99
2016-09-24T02:49:10.234Z,99.99
2016-09-24T02:50:10.016Z,99.99
2016-09-24T02:51:09.393Z,99.99
2016-09-24T02:52:10.297Z,99.99
2016-09-24T02:53:10.941Z,99.99
2016-09-24T02:54:09.772Z,99.99
2016-09-24T02:55:10.176Z,99.99
2016-09-24T02:56:10.462Z,99.99
2016-09-24T02:57:09.321Z,99.99
2016-09-24T02:58:09.801Z,99.99
2016-09-24T02:59:09.519Z,99.99
2016-09-24T03:00:09.978Z,99.99
2016-09-24T03:01:10.359Z,99.99
2016-09-24T03:02:09.841Z,99.99
2016-09-24T03:03:09.948Z,99.99
2016-09-24T03:04:10.456Z,99.99
2016-09-24T03:05:10.190Z,99.99
2016-09-24T03:06:10.425Z,99.99
2016-09-24T03:07:10.386Z,99.99
2016-09-24T03:08:09.696Z,99.99
2016-09-24T03:09:09.415Z,99.99
2016-09-24T03:10:09.652Z,99.99
2016-09-24T03:11:09.487Z,99.99
2016-09-24T03:12:10.143Z,99.99
2016-09-24T03:13:10.127Z,99.99
2016-09-24T03:14:10.006Z,99.99
2016-09-24T03:15:10.875Z,99.99
2016-09-24T03:16:10.539Z,99.99
2016-09-24T03:17:09.988Z,99.99
2016-09-24T03:18:09.844Z,99.99
2016-09-24T03:19:09.736Z,99.99
2016-09-24T03:20:09.882Z,99.99
2016-09-24T03:21:10.257Z,99.99
2016-09-24T03:22:10.190Z,99.99
2016-09-24T03:23:10.499Z,99.99
2016-09-24T03:24:09.791Z,99.99
2016-09-24T03:25:10.193Z,99.99
2016-09-24T03:26:10.598Z,99.99
2016-09-24T03:27:10.181Z,99.99
2016-09-24T03:28:10.492Z,99.99
2016-09-24T03:29:10.908Z,99.99
2016-09-24T03:30:12.221Z,99.99
2016-09-24T03:31:10.015Z,99.99
2016-09-24T03:32:09.900Z,99.99
2016-09-24T03:33:10.939Z,99.99
2016-09-24T03:34:10.860Z,99.99
2016-09-24T03:35:10.662Z,99.99
2016-09-24T03:36:10.494Z,99.99
2016-09-24T03:37:10.557Z,99.99
2016-09-24T03:38:10.903Z,99.99
2016-09-24T03:39:10.300Z,99.99
2016-09-24T03:40:10.829Z,99.99
2016-09-24T03:41:10.085Z,99.99
2016-09-24T03:42:11.094Z,99.99
2016-09-24T03:43:10.584Z,99.99
2016-09-24T03:44:10.606Z,99.99
2016-09-24T03:45:10.539Z,99.99
2016-09-24T03:46:11.129Z,99.99
2016-09-24T03:47:10.799Z,99.99
2016-09-24T03:48:10.839Z,99.99
2016-09-24T03:49:10.947Z,99.99
2016-09-24T03:50:11.522Z,99.99
2016-09-24T03:51:10.756Z,99.99
2016-09-24T03:52:10.835Z,99.99
2016-09-24T03:53:10.834Z,99.99
2016-09-24T03:54:11.395Z,99.99
2016-09-24T03:55:10.800Z,99.99
2016-09-24T03:56:10.387Z,99.99
2016-09-24T03:57:11.458Z,99.99
2016-09-24T03:58:10.896Z,99.99
2016-09-24T03:59:10.859Z,99.99
2016-09-24T04:00:11.205Z,99.99
2016-09-24T04:01:11.167Z,99.99
2016-09-24T04:02:11.384Z,99.99
2016-09-24T04:03:10.670Z,99.99
2016-09-24T04:04:11.527Z,99.99
2016-09-24T04:05:11.365Z,99.99
2016-09-24T04:06:11.805Z,99.99
2016-09-24T04:07:10.877Z,99.99
2016-09-24T04:08:11.018Z,99.99
2016-09-24T04:09:12.716Z,99.99
2016-09-24T04:10:11.788Z,99.99
2016-09-24T04:11:10.900Z,99.99
2016-09-24T04:12:11.460Z,99.99
2016-09-24T04:13:11.369Z,99.99
2016-09-24T04:14:11.223Z,99.99
2016-09-24T04:15:11.119Z,99.99
2016-09-24T04:16:11.592Z,99.99
2016-09-24T04:17:11.930Z,99.99
2016-09-24T04:18:11.076Z,99.99
2016-09-24T04:19:11.373Z,99.99
2016-09-24T04:20:11.051Z,99.99
2016-09-24T04:21:10.812Z,99.99
2016-09-24T04:22:11.994Z,99.99
2016-09-24T04:23:12.568Z,99.99
2016-09-24T04:24:11.503Z,99.99
2016-09-24T04:25:10.944Z,99.99
2016-09-24T04:26:11.158Z,99.99
2016-09-24T04:27:11.589Z,99.99
2016-09-24T04:28:11.369Z,99.99
2016-09-24T04:29:11.662Z,99.99
2016-09-24T04:30:11.510Z,99.99
2016-09-24T04:31:11.466Z,99.99
2016-09-24T04:32:11.335Z,99.99
2016-09-24T04:33:11.491Z,99.99
2016-09-24T04:34:11.816Z,99.99
2016-09-24T04:35:11.454Z,99.99
2016-09-24T04:36:11.101Z,99.99
2016-09-24T04:37:11.962Z,99.99
2016-09-24T04:38:11.661Z,99.99
2016-09-24T04:39:11.943Z,99.99
2016-09-24T04:40:11.360Z,99.99
2016-09-24T04:41:11.357Z,99.99
2016-09-24T04:42:10.895Z,99.99
2016-09-24T04:43:12.205Z,99.99
2016-09-24T04:44:11.708Z,99.99
2016-09-24T04:45:12.589Z,99.99
2016-09-24T04:46:12.746Z,99.99
2016-09-24T04:47:12.963Z,99.99
2016-09-24T04:48:11.859Z,99.99
2016-09-24T04:49:12.179Z,99.99
2016-09-24T04:50:11.346Z,99.99
2016-09-24T04:51:11.673Z,99.99
2016-09-24T04:52:12.306Z,99.99
2016-09-24T04:53:12.660Z,99.99
2016-09-24T04:54:12.286Z,99.99
2016-09-24T04:55:12.220Z,99.99
2016-09-24T04:56:12.378Z,99.99
2016-09-24T04:57:12.437Z,99.99
2016-09-24T04:58:12.200Z,99.99
2016-09-24T04:59:12.130Z,99.99
2016-09-24T05:00:12.432Z,99.99
2016-09-24T05:01:11.995Z,99.99
2016-09-24T05:02:12.327Z,99.99
2016-09-24T05:03:12.540Z,99.99
2016-09-24T05:04:12.444Z,99.99
2016-09-24T05:05:12.525Z,99.99
2016-09-24T05:06:12.319Z,99.99
2016-09-24T05:07:12.744Z,99.99
2016-09-24T05:08:12.036Z,99.99
2016-09-24T05:09:11.826Z,99.99
2016-09-24T05:10:12.273Z,99.99
2016-09-24T05:11:11.834Z,99.99
2016-09-24T05:12:12.241Z,99.99
2016-09-24T05:13:12.508Z,99.99
2016-09-24T05:14:12.226Z,99.99
2016-09-24T05:15:12.852Z,99.99
2016-09-24T05:16:12.743Z,99.99
2016-09-24T05:17:12.253Z,99.99
2016-09-24T05:18:12.629Z,99.99
2016-09-24T05:19:12.785Z,99.99
2016-09-24T05:20:13.081Z,99.99
2016-09-24T05:21:13.284Z,99.99
2016-09-24T05:22:12.100Z,99.99
2016-09-24T05:23:12.590Z,99.99
2016-09-24T05:24:12.351Z,99.99
2016-09-24T05:25:11.908Z,99.99
2016-09-24T05:26:12.943Z,99.99
2016-09-24T05:27:13.223Z,99.99
2016-09-24T05:28:12.381Z,99.99
2016-09-24T05:29:12.127Z,99.99
2016-09-24T05:30:12.384Z,99.99
2016-09-24T05:31:12.713Z,99.99
2016-09-24T05:32:13.487Z,99.99
2016-09-24T05:33:12.430Z,99.99
2016-09-24T05:34:12.997Z,99.99
2016-09-24T05:35:12.840Z,99.99
2016-09-24T05:36:12.330Z,99.99
2016-09-24T05:37:12.567Z,99.99
2016-09-24T05:38:12.633Z,99.99
2016-09-24T05:39:12.563Z,99.99
2016-09-24T05:40:12.864Z,99.99
2016-09-24T05:41:12.377Z,99.99
2016-09-24T05:42:14.839Z,99.99
2016-09-24T05:43:12.732Z,99.99
2016-09-24T05:44:13.150Z,99.99
2016-09-24T05:45:13.535Z,99.99
2016-09-24T05:46:12.969Z,99.99
2016-09-24T05:47:12.844Z,99.99
2016-09-24T05:48:12.745Z,99.99
2016-09-24T05:49:12.760Z,99.99
2016-09-24T05:50:13.124Z,99.99
2016-09-24T05:51:13.160Z,99.99
2016-09-24T05:52:12.534Z,99.99
2016-09-24T05:53:13.076Z,99.99
2016-09-24T05:54:12.600Z,99.99
2016-09-24T05:55:13.388Z,99.99
2016-09-24T05:56:13.234Z,99.99
2016-09-24T05:57:13.545Z,99.99
2016-09-24T05:58:13.363Z,99.99
2016-09-24T05:59:13.362Z,99.99
2016-09-24T06:00:12.834Z,99.99
2016-09-24T06:01:13.346Z,99.99
2016-09-24T06:02:12.734Z,99.99
2016-09-24T06:03:12.618Z,99.99
2016-09-24T06:04:12.878Z,99.99
2016-09-24T06:05:14.798Z,99.99
2016-09-24T06:06:13.188Z,99.99
2016-09-24T06:07:13.646Z,99.99
2016-09-24T06:08:13.047Z,99.99
2016-09-24T06:09:13.464Z,99.99
2016-09-24T06:10:13.286Z,99.99
2016-09-24T06:11:13.132Z,99.99
2016-09-24T06:12:13.646Z,99.99
2016-09-24T06:13:14.091Z,99.99
2016-09-24T06:14:13.279Z,99.99
2016-09-24T06:15:13.583Z,99.99
2016-09-24T06:16:13.670Z,99.99
2016-09-24T06:17:13.566Z,99.99
2016-09-24T06:18:13.876Z,99.99
2016-09-24T06:19:13.560Z,99.99
2016-09-24T06:20:13.384Z,99.99
2016-09-24T06:21:13.905Z,99.99
2016-09-24T06:22:13.406Z,99.99
2016-09-24T06:23:13.993Z,99.99
2016-09-24T06:24:13.316Z,99.99
2016-09-24T06:25:13.758Z,99.99
2016-09-24T06:26:13.947Z,99.99
2016-09-24T06:27:14.049Z,99.99
2016-09-24T06:28:13.456Z,99.99
2016-09-24T06:29:13.534Z,99.99
2016-09-24T06:30:13.610Z,99.99
2016-09-24T06:31:14.256Z,99.99
2016-09-24T06:32:13.536Z,99.99
2016-09-24T06:33:13.819Z,99.99
2016-09-24T06:34:14.082Z,99.99
2016-09-24T06:35:14.046Z,99.99
2016-09-24T06:36:13.413Z,99.99
2016-09-24T06:37:14.284Z,99.99
2016-09-24T06:38:13.792Z,99.99
2016-09-24T06:39:14.370Z,99.99
2016-09-24T06:40:13.799Z,99.99
2016-09-24T06:41:14.161Z,99.99
2016-09-24T06:42:14.245Z,99.99
2016-09-24T06:43:13.665Z,99.99
2016-09-24T06:44:14.761Z,99.99
2016-09-24T06:45:14.593Z,99.99
2016-09-24T06:46:14.559Z,99.99
2016-09-24T06:47:14.199Z,99.99
2016-09-24T06:48:14.458Z,99.99
2016-09-24T06:49:14.281Z,99.99
2016-09-24T06:50:14.224Z,99.99
2016-09-24T06:51:14.850Z,99.99
2016-09-24T06:52:15.346Z,99.99
2016-09-24T06:53:13.492Z,99.99
2016-09-24T06:54:14.784Z,99.99
2016-09-24T06:55:14.726Z,99.99
2016-09-24T06:56:15.102Z,99.99
2016-09-24T06:57:14.356Z,99.99
2016-09-24T06:58:15.050Z,99.99
2016-09-24T06:59:14.673Z,99.99
2016-09-24T07:00:14.262Z,99.99
2016-09-24T07:01:14.625Z,99.99
2016-09-24T07:02:14.459Z,99.99
2016-09-24T07:03:14.728Z,99.99
2016-09-24T07:04:14.262Z,99.99
2016-09-24T07:05:14.487Z,99.99
2016-09-24T07:06:15.197Z,99.99
2016-09-24T07:07:15.198Z,99.99
2016-09-24T07:08:14.572Z,99.99
2016-09-24T07:09:14.898Z,99.99
2016-09-24T07:10:14.991Z,99.99
2016-09-24T07:11:14.733Z,99.99
2016-09-24T07:12:15.026Z,99.99
2016-09-24T07:13:14.385Z,99.99
2016-09-24T07:14:14.555Z,99.99
2016-09-24T07:15:14.918Z,99.99
2016-09-24T07:16:14.928Z,99.99
2016-09-24T07:17:14.988Z,99.99
2016-09-24T07:18:15.500Z,99.99
2016-09-24T07:19:14.846Z,99.99
2016-09-24T07:20:16.068Z,99.99
2016-09-24T07:21:14.640Z,99.99
2016-09-24T07:22:15.268Z,99.99
2016-09-24T07:23:15.412Z,99.99
2016-09-24T07:24:14.482Z,99.99
2016-09-24T07:25:15.032Z,99.99
2016-09-24T07:26:15.255Z,99.99
2016-09-24T07:27:14.813Z,99.99
2016-09-24T07:28:14.798Z,99.99
2016-09-24T07:29:14.564Z,99.99
2016-09-24T07:30:14.989Z,99.99
2016-09-24T07:31:14.739Z,99.99
2016-09-24T07:32:15.457Z,99.99
2016-09-24T07:33:14.631Z,99.99
2016-09-24T07:34:15.957Z,99.99
2016-09-24T07:35:15.102Z,99.99
2016-09-24T07:36:14.767Z,99.99
2016-09-24T07:37:14.776Z,99.99
2016-09-24T07:38:15.214Z,99.99
2016-09-24T07:39:16.280Z,99.99
2016-09-24T07:40:14.784Z,99.99
2016-09-24T07:41:14.697Z,99.99
2016-09-24T07:42:14.615Z,99.99
2016-09-24T07:43:14.960Z,99.99
2016-09-24T07:44:15.370Z,99.99
2016-09-24T07:45:14.914Z,99.66
2016-09-24T07:46:15.355Z,98.99
2016-09-24T07:47:16.232Z,98.42
2016-09-24T07:48:15.247Z,96.89
2016-09-24T07:49:15.540Z,96.46
2016-09-24T07:50:15.241Z,96.46
2016-09-24T07:51:15.219Z,96.17
2016-09-24T07:52:15.284Z,95.32
2016-09-24T07:53:15.764Z,93.74
2016-09-24T07:54:15.146Z,94.65
2016-09-24T07:55:15.584Z,94.41
2016-09-24T07:56:16.502Z,92.69
2016-09-24T07:57:15.576Z,93.07
2016-09-24T07:58:14.906Z,93.16
2016-09-24T07:59:16.284Z,93.36
2016-09-24T08:00:16.560Z,93.79
2016-09-24T08:01:15.950Z,93.88
2016-09-24T08:02:15.452Z,94.07
2016-09-24T08:03:15.496Z,94.93
2016-09-24T08:04:15.903Z,95.79
2016-09-24T08:05:15.768Z,96.08
2016-09-24T08:06:15.436Z,96.22
2016-09-24T08:07:16.662Z,97.56
2016-09-24T08:08:16.424Z,96.8
2016-09-24T08:09:15.777Z,96.37
2016-09-24T08:10:15.562Z,95.79
2016-09-24T08:11:15.477Z,96.22
2016-09-24T08:12:15.649Z,95.89
2016-09-24T08:13:15.658Z,94.36
2016-09-24T08:14:15.523Z,94.65
2016-09-24T08:15:16.342Z,94.55
2016-09-24T08:16:16.049Z,93.12
2016-09-24T08:17:15.764Z,92.97
2016-09-24T08:18:15.785Z,92.5
2016-09-24T08:19:15.264Z,92.11
2016-09-24T08:20:15.634Z,92.69
2016-09-24T08:21:16.022Z,91.78
2016-09-24T08:22:16.124Z,90.53
2016-09-24T08:23:17.059Z,90.53
2016-09-24T08:24:16.018Z,91.49
2016-09-24T08:25:16.789Z,91.49
2016-09-24T08:26:16.223Z,90.44
2016-09-24T08:27:15.633Z,91.2
2016-09-24T08:28:16.098Z,90.53
2016-09-24T08:29:16.170Z,91.16
2016-09-24T08:30:16.567Z,89.15
2016-09-24T08:31:16.245Z,90.01
2016-09-24T08:32:15.874Z,89.34
2016-09-24T08:33:17.392Z,89.43
2016-09-24T08:34:16.276Z,88.09
2016-09-24T08:35:16.244Z,88.43
2016-09-24T08:36:16.810Z,88.23
2016-09-24T08:37:16.273Z,87.27
2016-09-24T08:38:16.610Z,87.27
2016-09-24T08:39:16.263Z,87.66
2016-09-24T08:40:17.381Z,86.65
2016-09-24T08:41:16.079Z,86.32
2016-09-24T08:42:16.751Z,86.22
2016-09-24T08:43:16.576Z,86.51
2016-09-24T08:44:17.099Z,87.81
2016-09-24T08:45:17.618Z,87.76
2016-09-24T08:46:16.768Z,84.92
2016-09-24T08:47:16.331Z,85.21
2016-09-24T08:48:16.703Z,84.83
2016-09-24T08:49:16.779Z,85.12
2016-09-24T08:50:17.414Z,85.31
2016-09-24T08:51:16.646Z,86.65
2016-09-24T08:52:17.312Z,87.18
2016-09-24T08:53:16.320Z,87.85
2016-09-24T08:54:16.235Z,85.84
2016-09-24T08:55:16.991Z,86.41
2016-09-24T08:56:17.377Z,87.66
2016-09-24T08:57:16.979Z,88.76
2016-09-24T08:58:16.561Z,88.48
2016-09-24T08:59:17.865Z,86.99
2016-09-24T09:00:17.080Z,87.27
2016-09-24T09:01:16.588Z,86.55
2016-09-24T09:02:17.538Z,83.87
2016-09-24T09:03:17.155Z,85.21
2016-09-24T09:04:16.758Z,85.84
2016-09-24T09:05:17.323Z,86.55
2016-09-24T09:06:16.958Z,83.25
2016-09-24T09:07:17.322Z,84.01
2016-09-24T09:08:16.873Z,81.08
2016-09-24T09:09:16.675Z,81.75
2016-09-24T09:10:16.979Z,82.96
2016-09-24T09:11:16.810Z,82.76
2016-09-24T09:12:17.340Z,82.86
2016-09-24T09:13:17.464Z,82.14
2016-09-24T09:14:17.452Z,80.45
2016-09-24T09:15:17.505Z,80.99
2016-09-24T09:16:17.308Z,82.14
2016-09-24T09:17:17.664Z,82.96
2016-09-24T09:18:17.571Z,82.57
2016-09-24T09:19:17.477Z,82.48
2016-09-24T09:20:17.581Z,82.37
2016-09-24T09:21:16.924Z,78.47
2016-09-24T09:22:16.762Z,78.44
2016-09-24T09:23:18.223Z,77.9
2016-09-24T09:24:17.409Z,79.63
2016-09-24T09:25:17.648Z,77.9
2016-09-24T09:26:17.142Z,78.67
2016-09-24T09:27:17.144Z,78.34
2016-09-24T09:28:17.876Z,77.95
2016-09-24T09:29:17.507Z,77.04
2016-09-24T09:30:17.564Z,77.04
2016-09-24T09:31:17.611Z,77.9
2016-09-24T09:32:17.531Z,77.29
2016-09-24T09:33:18.131Z,77.19
2016-09-24T09:34:17.643Z,76.27
2016-09-24T09:35:18.168Z,75.06
2016-09-24T09:36:17.244Z,73.46
2016-09-24T09:37:17.418Z,73.18
2016-09-24T09:38:18.100Z,71.29
2016-09-24T09:39:17.613Z,73.37
2016-09-24T09:40:17.552Z,75.2
2016-09-24T09:41:17.534Z,73.6
2016-09-24T09:42:18.319Z,74.19
2016-09-24T09:43:17.634Z,73.27
2016-09-24T09:44:17.542Z,72.34
2016-09-24T09:45:17.760Z,71.71
2016-09-24T09:46:19.423Z,70.84
2016-09-24T09:47:17.567Z,73.6
2016-09-24T09:48:18.320Z,75.29
2016-09-24T09:49:17.895Z,74.33
2016-09-24T09:50:18.330Z,72.73
2016-09-24T09:51:18.028Z,72.09
2016-09-24T09:52:17.641Z,70.84
2016-09-24T09:53:17.665Z,72.19
2016-09-24T09:54:19.449Z,72.34
2016-09-24T09:55:17.848Z,73.75
2016-09-24T09:56:18.147Z,71.96
2016-09-24T09:57:18.159Z,72.06
2016-09-24T09:58:18.209Z,71.77
2016-09-24T09:59:18.441Z,72.34
2016-09-24T10:00:18.552Z,71.58
2016-09-24T10:01:18.556Z,69.4
2016-09-24T10:02:18.525Z,69.15
2016-09-24T10:03:18.020Z,67.55
2016-09-24T10:04:18.421Z,67.07
2016-09-24T10:05:18.866Z,68.51
2016-09-24T10:06:19.712Z,67.35
2016-09-24T10:07:19.156Z,66.62
2016-09-24T10:08:19.290Z,67.07
2016-09-24T10:09:18.112Z,66.71
2016-09-24T10:10:18.343Z,66.04
2016-09-24T10:11:18.061Z,66.36
2016-09-24T10:12:18.438Z,68.22
2016-09-24T10:13:19.491Z,67.55
2016-09-24T10:14:18.361Z,70.09
2016-09-24T10:15:19.029Z,65.3
2016-09-24T10:16:18.409Z,66.97
2016-09-24T10:17:18.437Z,65.24
2016-09-24T10:18:19.416Z,67.46
2016-09-24T10:19:18.549Z,64.86
2016-09-24T10:20:18.972Z,66.46
2016-09-24T10:21:19.014Z,66.71
2016-09-24T10:22:18.851Z,67.39
2016-09-24T10:23:19.394Z,66.24
2016-09-24T10:24:19.871Z,66.17
2016-09-24T10:25:19.153Z,66.94
2016-09-24T10:26:19.554Z,67.74
2016-09-24T10:27:19.200Z,68.51
2016-09-24T10:28:19.209Z,68.9
2016-09-24T10:29:19.658Z,68.7
2016-09-24T10:30:19.099Z,68.6
2016-09-24T10:31:19.216Z,65.94
2016-09-24T10:32:19.223Z,65.69
2016-09-24T10:33:18.853Z,65.43
2016-09-24T10:34:19.169Z,62.79
2016-09-24T10:35:19.665Z,62.48
2016-09-24T10:36:19.455Z,61.74
2016-09-24T10:37:19.822Z,61.28
2016-09-24T10:38:19.117Z,62.15
2016-09-24T10:39:19.030Z,63.34
2016-09-24T10:40:19.598Z,63.06
2016-09-24T10:41:19.447Z,63.89
2016-09-24T10:42:19.785Z,64.34
2016-09-24T10:43:19.664Z,65.2
2016-09-24T10:44:19.437Z,65.69
2016-09-24T10:45:19.241Z,66.3
2016-09-24T10:46:19.856Z,61.99
2016-09-24T10:47:19.755Z,62.12
2016-09-24T10:48:19.519Z,63.06
2016-09-24T10:49:20.509Z,64.02
2016-09-24T10:50:19.628Z,64.28
2016-09-24T10:51:19.749Z,63.6
2016-09-24T10:52:19.880Z,63.54
2016-09-24T10:53:20.345Z,64.15
2016-09-24T10:54:19.917Z,60.58
2016-09-24T10:55:20.225Z,61.35
2016-09-24T10:56:19.693Z,62.09
2016-09-24T10:57:20.287Z,62.48
2016-09-24T10:58:19.550Z,61.25
2016-09-24T10:59:20.034Z,60.06
2016-09-24T11:00:20.352Z,59.71
2016-09-24T11:01:19.472Z,58.19
2016-09-24T11:02:20.330Z,60.22
2016-09-24T11:03:19.573Z,58.22
2016-09-24T11:04:19.620Z,57.45
2016-09-24T11:05:20.743Z,57.64
2016-09-24T11:06:21.095Z,56.9
2016-09-24T11:07:19.903Z,56.39
2016-09-24T11:08:20.366Z,57.84
2016-09-24T11:09:19.745Z,56.99
2016-09-24T11:10:20.863Z,56.61
2016-09-24T11:11:19.940Z,56.39
2016-09-24T11:12:20.528Z,57.93
2016-09-24T11:13:20.038Z,58.03
2016-09-24T11:14:20.031Z,55.29
2016-09-24T11:15:19.888Z,56.32
2016-09-24T11:16:20.287Z,58.29
2016-09-24T11:17:20.108Z,58.93
2016-09-24T11:18:20.190Z,56.73
2016-09-24T11:19:20.183Z,53.16
2016-09-24T11:20:20.374Z,53.74
2016-09-24T11:21:20.306Z,55.45
2016-09-24T11:22:20.614Z,54.13
2016-09-24T11:23:20.744Z,55.77
2016-09-24T11:24:20.214Z,53.77
2016-09-24T11:25:20.256Z,51.95
2016-09-24T11:26:21.248Z,51.52
2016-09-24T11:27:20.357Z,50.6
2016-09-24T11:28:20.882Z,50.76
2016-09-24T11:29:21.896Z,50.79
2016-09-24T11:30:20.690Z,50.93
2016-09-24T11:31:20.852Z,52.19
2016-09-24T11:32:20.565Z,53.03
2016-09-24T11:33:21.147Z,54.49
2016-09-24T11:34:21.428Z,56.41
2016-09-24T11:35:20.856Z,56.63
2016-09-24T11:36:22.711Z,54.57
2016-09-24T11:37:21.216Z,53.79
2016-09-24T11:38:21.763Z,54.91
2016-09-24T11:39:21.805Z,51.98
2016-09-24T11:40:21.056Z,55.24
2016-09-24T11:41:22.459Z,54.08
2016-09-24T11:42:22.047Z,53.5
2016-09-24T11:43:21.366Z,49.34
2016-09-24T11:44:21.170Z,48.18
2016-09-24T11:45:21.981Z,47.31
2016-09-24T11:46:21.504Z,46.61
2016-09-24T11:47:21.395Z,48.23
2016-09-24T11:48:21.290Z,46.66
2016-09-24T11:49:21.815Z,46.85
2016-09-24T11:50:21.152Z,48.28
2016-09-24T11:51:22.371Z,47.33
2016-09-24T11:52:21.216Z,47.07
2016-09-24T11:53:21.340Z,47.16
2016-09-24T11:54:21.778Z,45.81
2016-09-24T11:55:21.230Z,47.74
2016-09-24T11:56:21.269Z,47.33
2016-09-24T11:57:21.404Z,49.75
2016-09-24T11:58:22.149Z,52.07
2016-09-24T11:59:21.724Z,47.58
2016-09-24T12:00:21.221Z,49.44
2016-09-24T12:01:22.283Z,50.07
2016-09-24T12:02:22.350Z,45.58
2016-09-24T12:03:22.275Z,43.91
2016-09-24T12:04:21.843Z,41.58
2016-09-24T12:05:22.585Z,40.79
2016-09-24T12:06:22.674Z,39.36
2016-09-24T12:07:22.644Z,42.72
2016-09-24T12:08:22.468Z,44.18
2016-09-24T12:09:21.908Z,41.8
2016-09-24T12:10:22.810Z,44.2
2016-09-24T12:11:22.377Z,41.47
2016-09-24T12:12:22.761Z,42.51
2016-09-24T12:13:22.455Z,43.82
2016-09-24T12:14:22.939Z,45.81
2016-09-24T12:15:22.285Z,44.26
2016-09-24T12:16:22.398Z,46.58
2016-09-24T12:17:22.792Z,44.29
2016-09-24T12:18:22.549Z,46.08
2016-09-24T12:19:22.115Z,48.88
2016-09-24T12:20:23.001Z,50.62
2016-09-24T12:21:22.908Z,45.42
2016-09-24T12:22:22.717Z,43.68
2016-09-24T12:23:23.098Z,45.81
2016-09-24T12:24:22.479Z,44.84
2016-09-24T12:25:22.262Z,44.94
2016-09-24T12:26:23.079Z,46.97
2016-09-24T12:27:22.274Z,55.02
2016-09-24T12:28:22.440Z,49.05
2016-09-24T12:29:23.535Z,44.06
2016-09-24T12:30:22.717Z,46.58
2016-09-24T12:31:22.578Z,42.94
2016-09-24T12:32:22.730Z,46.48
2016-09-24T12:33:23.459Z,43.98
2016-09-24T12:34:24.013Z,40.72
2016-09-24T12:35:22.764Z,40.03
2016-09-24T12:36:23.489Z,48.08
2016-09-24T12:37:22.597Z,40.6
2016-09-24T12:38:22.892Z,35.72
2016-09-24T12:39:22.970Z,38.46
2016-09-24T12:40:22.980Z,44.95
2016-09-24T12:41:23.021Z,41.28
2016-09-24T12:42:23.117Z,37.16
2016-09-24T12:43:23.221Z,34.79
2016-09-24T12:44:22.707Z,38.07
2016-09-24T12:45:23.232Z,35.55
2016-09-24T12:46:23.340Z,36.99
2016-09-24T12:47:23.187Z,35.88
2016-09-24T12:48:23.915Z,36.29
2016-09-24T12:49:24.374Z,37.16
2016-09-24T12:50:23.690Z,37.66
2016-09-24T12:51:23.816Z,40.83
2016-09-24T12:52:23.077Z,35.24
2016-09-24T12:53:23.803Z,36.58